Time;durP1;ratioP1;P1;durP2;ratioP2;P2;SDS_P1;SDS_P2;PMS_P1;PMS_P2;Temp;Humidity;BMP_temperature;BMP_pressure;BME280_temperature;BME280_humidity;BME280_pressure;Samples;Min_cycle;Max_cycle;Signal;HPM_P1;HPM_P2
2023/01/18 00:00:44;;;;;;;0.70;0.70;;;1.30;99.90;;;;;;5095140;28;20626;-77
2023/01/18 00:03:11;;;;;;;0.70;0.70;;;1.30;99.90;;;;;;5096264;28;20224;-77
2023/01/18 00:05:41;;;;;;;0.70;0.70;;;1.30;99.90;;;;;;5096151;28;20249;-77
2023/01/18 00:08:12;;;;;;;0.50;0.50;;;1.30;99.90;;;;;;5096336;28;20233;-77
2023/01/18 00:10:39;;;;;;;0.70;0.70;;;1.30;99.90;;;;;;5094487;28;20599;-77
2023/01/18 00:13:05;;;;;;;0.60;0.60;;;1.30;99.90;;;;;;5095030;28;20689;-77
2023/01/18 00:15:32;;;;;;;0.73;0.73;;;1.40;99.90;;;;;;5090626;28;20220;-78
2023/01/18 00:17:58;;;;;;;0.60;0.60;;;1.40;99.90;;;;;;5074690;28;20556;-77
2023/01/18 00:20:25;;;;;;;0.60;0.60;;;1.40;99.90;;;;;;5074531;28;20193;-79
2023/01/18 00:22:52;;;;;;;0.57;0.57;;;1.40;99.90;;;;;;5075453;28;20200;-78
2023/01/18 00:25:19;;;;;;;0.60;0.60;;;1.40;99.90;;;;;;5094435;28;20271;-78
2023/01/18 00:27:47;;;;;;;0.60;0.60;;;1.40;99.90;;;;;;5094679;28;20196;-77
2023/01/18 00:30:16;;;;;;;0.80;0.80;;;1.40;99.90;;;;;;5096115;28;20219;-78
2023/01/18 00:32:42;;;;;;;0.80;0.80;;;1.40;99.90;;;;;;5094778;28;20685;-77
2023/01/18 00:35:08;;;;;;;0.50;0.50;;;1.40;99.90;;;;;;5089590;28;20256;-77
2023/01/18 00:37:35;;;;;;;1.60;1.50;;;1.40;99.90;;;;;;5078238;28;20547;-77
2023/01/18 00:40:02;;;;;;;0.50;0.50;;;1.40;99.90;;;;;;5095135;28;20616;-78
2023/01/18 00:45:12;;;;;;;0.57;0.57;;;1.40;99.90;;;;;;5095828;28;20202;-78
2023/01/18 00:47:38;;;;;;;0.60;0.60;;;1.40;99.90;;;;;;5093872;28;20204;-75
2023/01/18 00:50:04;;;;;;;0.65;0.65;;;1.40;99.90;;;;;;5084679;28;20295;-75
2023/01/18 00:52:30;;;;;;;0.70;0.70;;;1.50;99.90;;;;;;5095327;28;20195;-77
2023/01/18 00:54:56;;;;;;;0.60;0.60;;;1.40;99.90;;;;;;5095481;28;20192;-77
2023/01/18 00:57:22;;;;;;;0.70;0.70;;;1.50;99.90;;;;;;5095376;28;20188;-78
2023/01/18 00:59:47;;;;;;;0.50;0.50;;;1.40;99.90;;;;;;5095491;28;20478;-77
2023/01/18 01:02:13;;;;;;;0.60;0.60;;;1.40;99.90;;;;;;5095185;28;20196;-78
2023/01/18 01:07:23;;;;;;;0.60;0.60;;;1.40;99.90;;;;;;5090135;28;20203;-78
2023/01/18 01:09:49;;;;;;;0.70;0.70;;;1.40;99.90;;;;;;5073385;28;20291;-77
2023/01/18 01:26:07;;;;;;;0.68;0.68;;;1.40;99.90;;;;;;5095009;28;20283;-77
2023/01/18 01:28:49;;;;;;;0.70;0.70;;;1.40;99.90;;;;;;5094510;28;20655;-77
2023/01/18 01:31:16;;;;;;;0.60;0.60;;;1.40;99.90;;;;;;5094682;28;20199;-77
2023/01/18 01:33:43;;;;;;;0.63;0.63;;;1.40;99.90;;;;;;5094385;28;20689;-78
2023/01/18 01:36:12;;;;;;;0.55;0.55;;;1.40;99.90;;;;;;5093106;28;20195;-78
2023/01/18 01:38:40;;;;;;;0.57;0.57;;;1.40;99.90;;;;;;5094223;28;20222;-77
2023/01/18 01:41:19;;;;;;;0.65;0.65;;;1.40;99.90;;;;;;5094853;28;20740;-77
2023/01/18 01:43:50;;;;;;;0.85;0.85;;;1.40;99.90;;;;;;5094351;28;20180;-77
2023/01/18 01:46:22;;;;;;;2.08;0.90;;;1.40;99.90;;;;;;5092934;28;20663;-76
2023/01/18 01:48:48;;;;;;;0.63;0.63;;;1.40;99.90;;;;;;5092861;28;20230;-75
2023/01/18 01:51:17;;;;;;;0.60;0.60;;;1.30;99.90;;;;;;5092346;28;20195;-76
2023/01/18 01:53:44;;;;;;;0.60;0.60;;;1.30;99.90;;;;;;5092397;28;20231;-77
2023/01/18 01:56:11;;;;;;;0.57;0.57;;;1.30;99.90;;;;;;5092907;28;20193;-77
2023/01/18 01:58:37;;;;;;;0.70;0.70;;;1.20;99.90;;;;;;5093867;28;20274;-77
2023/01/18 02:01:03;;;;;;;1.23;1.13;;;1.20;99.90;;;;;;5093385;28;20196;-76
2023/01/18 02:03:30;;;;;;;0.63;0.63;;;1.20;99.90;;;;;;5107263;22;20376;-79
2023/01/18 02:06:07;;;;;;;0.60;0.60;;;1.20;99.90;;;;;;5093453;28;20196;-80
2023/01/18 02:08:32;;;;;;;0.70;0.70;;;1.20;99.90;;;;;;5093047;28;20199;-80
2023/01/18 02:10:58;;;;;;;0.60;0.60;;;1.20;99.90;;;;;;5092179;28;20196;-79
2023/01/18 02:13:25;;;;;;;0.60;0.60;;;1.20;99.90;;;;;;5093057;28;20188;-80
2023/01/18 02:15:59;;;;;;;0.70;0.70;;;1.20;99.90;;;;;;5092045;28;20677;-80
2023/01/18 02:18:58;;;;;;;0.47;0.47;;;1.20;99.90;;;;;;5093008;28;20199;-80
2023/01/18 02:21:39;;;;;;;0.60;0.60;;;1.20;99.90;;;;;;5093026;28;20217;-79
2023/01/18 02:24:25;;;;;;;0.60;0.60;;;1.20;99.90;;;;;;5093116;28;20196;-79
2023/01/18 02:27:19;;;;;;;0.50;0.50;;;1.20;99.90;;;;;;5091750;28;20196;-79
2023/01/18 02:29:57;;;;;;;0.60;0.60;;;1.20;99.90;;;;;;5072732;28;20296;-78
2023/01/18 02:32:37;;;;;;;0.70;0.70;;;1.20;99.90;;;;;;5071321;28;20266;-77
2023/01/18 02:35:09;;;;;;;0.60;0.60;;;1.20;99.90;;;;;;5073170;28;20188;-79
2023/01/18 02:38:02;;;;;;;0.57;0.57;;;1.20;99.90;;;;;;5074169;28;20670;-79
2023/01/18 02:40:38;;;;;;;0.50;0.50;;;1.20;99.90;;;;;;5092699;28;20305;-79
2023/01/18 02:48:41;;;;;;;0.60;0.60;;;1.20;99.90;;;;;;5092846;28;20202;-79
2023/01/18 02:51:07;;;;;;;0.70;0.70;;;1.20;99.90;;;;;;5092859;28;20196;-79
2023/01/18 02:53:41;;;;;;;0.50;0.50;;;1.20;99.90;;;;;;5092612;28;20195;-79
2023/01/18 02:56:10;;;;;;;0.60;0.60;;;1.20;99.90;;;;;;5091498;28;20291;-79
2023/01/18 02:58:54;;;;;;;0.70;0.70;;;1.20;99.90;;;;;;5091378;28;20747;-79
2023/01/18 03:01:29;;;;;;;1.10;0.98;;;1.30;99.90;;;;;;5084068;28;20242;-79
2023/01/18 03:04:20;;;;;;;0.70;0.70;;;1.30;99.90;;;;;;5073761;28;20694;-79
2023/01/18 03:06:50;;;;;;;0.70;0.70;;;1.20;99.90;;;;;;5076645;28;20236;-78
2023/01/18 03:09:17;;;;;;;0.70;0.70;;;1.30;99.90;;;;;;5076479;28;20201;-78
2023/01/18 03:12:06;;;;;;;0.60;0.60;;;1.20;99.90;;;;;;5076448;28;20262;-79
2023/01/18 03:15:08;;;;;;;0.80;0.80;;;1.20;99.90;;;;;;5076329;28;20614;-79
2023/01/18 03:17:52;;;;;;;0.73;0.73;;;1.20;99.90;;;;;;5076115;28;20195;-78
2023/01/18 03:20:24;;;;;;;0.60;0.60;;;1.20;99.90;;;;;;5076271;28;20659;-79
2023/01/18 03:25:50;;;;;;;0.98;0.98;;;1.20;99.90;;;;;;5076127;28;20223;-80
2023/01/18 03:34:12;;;;;;;0.70;0.70;;;1.30;99.90;;;;;;5076065;28;20238;-79
2023/01/18 03:36:46;;;;;;;0.70;0.70;;;1.30;99.90;;;;;;5075749;28;20268;-79
2023/01/18 03:39:27;;;;;;;0.60;0.60;;;1.30;99.90;;;;;;5092379;28;20224;-79
2023/01/18 03:42:00;;;;;;;0.60;0.60;;;1.40;99.90;;;;;;5094838;28;20196;-79
2023/01/18 03:44:35;;;;;;;0.60;0.60;;;1.40;99.90;;;;;;5095858;28;20196;-79
2023/01/18 03:47:02;;;;;;;0.50;0.50;;;1.40;99.90;;;;;;5094810;28;20202;-79
2023/01/18 03:49:29;;;;;;;0.60;0.60;;;1.50;99.90;;;;;;5094444;28;20745;-79
2023/01/18 03:52:30;;;;;;;0.60;0.60;;;1.40;99.90;;;;;;5096321;28;20220;-79
2023/01/18 03:55:20;;;;;;;0.52;0.52;;;1.50;99.90;;;;;;5095963;28;20284;-79
2023/01/18 03:57:49;;;;;;;0.90;0.90;;;1.50;99.90;;;;;;5094623;28;20534;-79
2023/01/18 04:00:16;;;;;;;0.52;0.52;;;1.60;99.90;;;;;;5095751;28;20199;-79
2023/01/18 04:02:47;;;;;;;0.77;0.77;;;1.70;99.90;;;;;;5092749;28;20621;-79
2023/01/18 04:05:13;;;;;;;0.63;0.63;;;1.60;99.90;;;;;;5095636;28;20779;-79
2023/01/18 04:07:39;;;;;;;0.70;0.70;;;1.70;99.90;;;;;;5092854;28;20572;-79
2023/01/18 04:10:05;;;;;;;0.50;0.50;;;1.60;99.90;;;;;;5073891;28;20205;-79
2023/01/18 04:12:33;;;;;;;0.57;0.57;;;1.60;99.90;;;;;;5073915;28;20211;-80
2023/01/18 04:14:59;;;;;;;0.50;0.50;;;1.70;99.90;;;;;;5074337;28;20193;-79
2023/01/18 04:17:25;;;;;;;0.55;0.55;;;1.70;99.90;;;;;;5075262;28;20258;-79
2023/01/18 04:19:51;;;;;;;0.50;0.50;;;1.60;99.90;;;;;;5079196;28;20587;-79
2023/01/18 04:22:17;;;;;;;0.60;0.60;;;1.70;99.90;;;;;;5095389;28;20199;-79
2023/01/18 04:24:42;;;;;;;0.50;0.50;;;1.70;99.90;;;;;;5095249;28;20192;-79
2023/01/18 04:27:08;;;;;;;0.60;0.60;;;1.70;99.90;;;;;;5095371;28;20197;-79
2023/01/18 04:29:34;;;;;;;0.60;0.60;;;1.70;99.90;;;;;;5094873;28;20207;-79
2023/01/18 04:32:00;;;;;;;0.60;0.60;;;1.70;99.90;;;;;;5095223;28;20189;-80
2023/01/18 04:34:25;;;;;;;0.50;0.50;;;1.70;99.90;;;;;;5094847;28;20188;-79
2023/01/18 04:36:52;;;;;;;0.70;0.70;;;1.70;99.90;;;;;;5093801;28;20193;-79
2023/01/18 04:39:18;;;;;;;0.57;0.57;;;1.70;99.90;;;;;;5094861;28;20200;-79
2023/01/18 04:41:44;;;;;;;0.65;0.65;;;1.70;99.90;;;;;;5094964;28;20554;-79
2023/01/18 04:44:10;;;;;;;0.90;0.90;;;1.70;99.90;;;;;;5093599;28;20200;-80
2023/01/18 04:46:37;;;;;;;0.60;0.60;;;1.70;99.90;;;;;;5093487;28;20686;-79
2023/01/18 04:49:04;;;;;;;0.60;0.60;;;1.80;99.90;;;;;;5094670;28;20692;-80
2023/01/18 04:51:30;;;;;;;0.50;0.50;;;1.80;99.90;;;;;;5094587;28;20549;-79
2023/01/18 04:53:58;;;;;;;0.57;0.57;;;1.70;99.90;;;;;;5093468;28;20200;-78
2023/01/18 04:56:23;;;;;;;0.57;0.57;;;1.70;99.90;;;;;;5094369;28;20853;-78
2023/01/18 04:58:53;;;;;;;0.60;0.60;;;1.70;99.90;;;;;;5094769;28;20192;-78
2023/01/18 05:01:19;;;;;;;0.40;0.40;;;1.70;99.90;;;;;;5093101;28;20197;-79
2023/01/18 05:03:45;;;;;;;0.60;0.60;;;1.80;99.90;;;;;;5094344;28;20216;-79
2023/01/18 05:06:12;;;;;;;0.60;0.60;;;1.70;99.90;;;;;;5094231;28;20564;-79
2023/01/18 05:08:41;;;;;;;0.57;0.57;;;1.80;99.90;;;;;;5093157;28;20212;-79
2023/01/18 05:11:19;;;;;;;0.50;0.50;;;1.70;99.90;;;;;;5094510;28;20681;-79
2023/01/18 05:13:45;;;;;;;0.40;0.40;;;1.80;99.90;;;;;;5093069;28;20188;-78
2023/01/18 05:16:19;;;;;;;0.60;0.60;;;1.80;99.90;;;;;;5092981;28;20196;-78
2023/01/18 05:18:45;;;;;;;0.70;0.70;;;1.80;99.90;;;;;;5094264;28;20510;-78
2023/01/18 05:21:12;;;;;;;0.60;0.60;;;1.80;99.90;;;;;;5094234;28;20275;-79
2023/01/18 05:23:40;;;;;;;0.60;0.60;;;1.80;99.90;;;;;;5092754;28;20673;-81
2023/01/18 05:26:13;;;;;;;0.50;0.50;;;1.80;99.90;;;;;;5093808;28;20189;-78
2023/01/18 05:28:40;;;;;;;0.73;0.73;;;1.90;99.90;;;;;;5093826;28;20191;-78
2023/01/18 05:31:08;;;;;;;0.60;0.60;;;1.90;99.90;;;;;;5093703;28;20222;-78
2023/01/18 05:33:33;;;;;;;0.60;0.60;;;1.90;99.90;;;;;;5092536;28;20800;-78
2023/01/18 05:35:59;;;;;;;0.45;0.45;;;1.80;99.90;;;;;;5093988;28;20229;-78
2023/01/18 05:38:25;;;;;;;0.60;0.60;;;1.80;99.90;;;;;;5093670;28;20196;-78
2023/01/18 05:40:53;;;;;;;0.60;0.60;;;1.80;99.90;;;;;;5093966;28;20279;-79
2023/01/18 05:43:20;;;;;;;0.55;0.55;;;1.80;99.90;;;;;;5093747;28;20203;-78
2023/01/18 05:45:46;;;;;;;0.50;0.50;;;1.80;99.90;;;;;;5094017;28;20718;-78
2023/01/18 05:48:11;;;;;;;0.55;0.55;;;1.80;99.90;;;;;;5092406;28;20203;-79
2023/01/18 05:50:45;;;;;;;0.73;0.73;;;1.80;99.90;;;;;;5093300;28;20216;-78
2023/01/18 05:53:12;;;;;;;0.57;0.57;;;1.80;99.90;;;;;;5093644;28;20240;-78
2023/01/18 05:55:38;;;;;;;2.13;1.90;;;1.80;99.90;;;;;;5093401;28;20657;-78
2023/01/18 05:58:04;;;;;;;0.85;0.85;;;1.90;99.90;;;;;;5093639;28;20709;-78
2023/01/18 06:00:30;;;;;;;0.55;0.55;;;1.90;99.90;;;;;;5092104;28;20291;-78
2023/01/18 06:02:56;;;;;;;0.98;0.93;;;2.00;99.90;;;;;;5093018;28;20228;-78
2023/01/18 06:05:24;;;;;;;0.50;0.50;;;2.00;99.90;;;;;;5091773;28;20216;-80
2023/01/18 06:07:50;;;;;;;0.40;0.40;;;1.90;99.90;;;;;;5093460;28;20230;-80
2023/01/18 06:10:16;;;;;;;0.70;0.70;;;2.00;99.90;;;;;;5093240;28;20232;-79
2023/01/18 06:12:43;;;;;;;0.70;0.70;;;2.00;99.90;;;;;;5093208;28;20279;-78
2023/01/18 06:15:10;;;;;;;0.50;0.50;;;1.90;99.90;;;;;;5093337;28;20184;-78
2023/01/18 06:17:35;;;;;;;0.55;0.55;;;1.90;99.90;;;;;;5092991;28;20207;-78
2023/01/18 06:20:02;;;;;;;0.70;0.70;;;1.90;99.90;;;;;;5091914;28;20200;-78
2023/01/18 06:22:27;;;;;;;2.08;0.93;;;1.90;99.90;;;;;;5092987;28;20204;-78
2023/01/18 06:24:54;;;;;;;0.50;0.50;;;1.90;99.90;;;;;;5093232;28;20610;-78
2023/01/18 06:27:19;;;;;;;0.70;0.70;;;1.90;99.90;;;;;;5091597;28;20249;-78
2023/01/18 06:29:45;;;;;;;0.50;0.50;;;1.90;99.90;;;;;;5091602;28;20216;-78
2023/01/18 06:32:11;;;;;;;0.70;0.70;;;1.90;99.90;;;;;;5093042;28;20188;-78
2023/01/18 06:34:37;;;;;;;0.50;0.50;;;1.90;99.90;;;;;;5091643;28;20196;-78
2023/01/18 06:37:03;;;;;;;0.70;0.70;;;1.90;99.90;;;;;;5093599;28;20237;-79
2023/01/18 06:39:29;;;;;;;0.60;0.60;;;1.90;99.90;;;;;;5092226;28;20217;-78
2023/01/18 06:41:55;;;;;;;0.60;0.60;;;1.90;99.90;;;;;;5091700;28;20287;-78
2023/01/18 06:44:20;;;;;;;0.60;0.60;;;2.00;99.90;;;;;;5092620;28;20624;-78
2023/01/18 06:46:47;;;;;;;0.60;0.60;;;2.00;99.90;;;;;;5092949;28;20230;-80
2023/01/18 06:49:13;;;;;;;0.60;0.60;;;2.00;99.90;;;;;;5093115;28;20211;-78
2023/01/18 06:51:39;;;;;;;0.68;0.68;;;1.90;99.90;;;;;;5092613;28;20203;-79
2023/01/18 06:54:06;;;;;;;0.50;0.50;;;1.90;99.90;;;;;;5092891;28;20661;-78
2023/01/18 06:56:31;;;;;;;0.60;0.60;;;1.90;99.90;;;;;;5092645;28;20188;-78
2023/01/18 06:58:59;;;;;;;4.57;1.15;;;1.90;99.90;;;;;;5091272;28;20201;-78
2023/01/18 07:01:25;;;;;;;0.47;0.47;;;1.90;99.90;;;;;;5091164;28;20198;-78
2023/01/18 07:03:51;;;;;;;0.60;0.60;;;1.90;99.90;;;;;;5091200;28;20236;-78
2023/01/18 07:06:17;;;;;;;0.47;0.47;;;1.90;99.90;;;;;;5091322;28;20215;-78
2023/01/18 07:08:43;;;;;;;0.60;0.60;;;1.80;99.90;;;;;;5091058;28;20223;-78
2023/01/18 07:11:11;;;;;;;0.93;0.93;;;1.90;99.90;;;;;;5093063;28;20210;-78
2023/01/18 07:13:43;;;;;;;0.60;0.60;;;1.80;99.90;;;;;;5092448;28;20184;-78
2023/01/18 07:16:16;;;;;;;0.60;0.60;;;1.80;99.90;;;;;;5086972;28;20228;-78
2023/01/18 07:18:45;;;;;;;0.50;0.50;;;1.80;99.90;;;;;;5072335;28;20189;-80
2023/01/18 07:21:12;;;;;;;0.63;0.63;;;1.80;99.90;;;;;;5071505;28;20663;-79
2023/01/18 07:23:39;;;;;;;0.55;0.55;;;1.80;99.90;;;;;;5088162;28;20216;-77
2023/01/18 07:26:09;;;;;;;0.52;0.52;;;1.80;99.90;;;;;;5091124;28;20231;-78
2023/01/18 07:28:35;;;;;;;0.55;0.55;;;1.80;99.90;;;;;;5090964;28;20206;-79
2023/01/18 07:31:02;;;;;;;0.73;0.73;;;1.70;99.90;;;;;;5092399;28;20203;-79
2023/01/18 07:33:29;;;;;;;0.65;0.65;;;1.80;99.90;;;;;;5092278;28;20199;-78
2023/01/18 07:35:56;;;;;;;1.05;1.00;;;1.70;99.90;;;;;;5092425;28;20200;-78
2023/01/18 07:38:22;;;;;;;0.52;0.52;;;1.70;99.90;;;;;;5091995;28;20321;-78
2023/01/18 07:40:48;;;;;;;0.55;0.55;;;1.70;99.90;;;;;;5092518;28;20196;-78
2023/01/18 07:43:15;;;;;;;0.70;0.70;;;1.70;99.90;;;;;;5092387;28;20700;-78
2023/01/18 07:45:42;;;;;;;0.45;0.45;;;1.70;99.90;;;;;;5091065;28;20207;-78
2023/01/18 07:48:08;;;;;;;1.20;1.00;;;1.70;99.90;;;;;;5092459;28;20647;-78
2023/01/18 07:50:34;;;;;;;0.70;0.70;;;1.80;99.90;;;;;;5094501;28;20654;-79
2023/01/18 07:53:05;;;;;;;0.60;0.60;;;1.70;99.90;;;;;;5094840;28;20188;-78
2023/01/18 07:55:32;;;;;;;0.60;0.60;;;1.70;99.90;;;;;;5095823;28;20200;-78
2023/01/18 07:58:01;;;;;;;0.60;0.60;;;1.70;99.90;;;;;;5094635;28;20203;-78
2023/01/18 08:00:27;;;;;;;0.50;0.50;;;1.70;99.90;;;;;;5095592;28;20204;-78
2023/01/18 08:02:54;;;;;;;0.50;0.50;;;1.70;99.90;;;;;;5095693;28;20254;-78
2023/01/18 08:05:22;;;;;;;0.60;0.60;;;1.70;99.90;;;;;;5094132;28;20205;-78
2023/01/18 08:07:49;;;;;;;0.60;0.60;;;1.80;99.90;;;;;;5094514;28;20192;-78
2023/01/18 08:10:16;;;;;;;0.50;0.50;;;1.80;99.90;;;;;;5095636;28;20222;-79
2023/01/18 08:12:42;;;;;;;0.57;0.57;;;1.80;99.90;;;;;;5095517;28;20589;-78
2023/01/18 08:15:08;;;;;;;0.50;0.50;;;1.80;99.90;;;;;;5095539;28;20227;-78
2023/01/18 08:17:34;;;;;;;0.52;0.52;;;1.80;99.90;;;;;;5093946;28;20199;-78
2023/01/18 08:20:00;;;;;;;0.60;0.60;;;1.80;99.90;;;;;;5095338;28;20193;-78
2023/01/18 08:22:26;;;;;;;0.60;0.60;;;1.80;99.90;;;;;;5095269;28;20215;-78
2023/01/18 08:24:51;;;;;;;0.50;0.50;;;1.80;99.90;;;;;;5095442;28;20241;-78
2023/01/18 08:27:17;;;;;;;0.80;0.80;;;1.80;99.90;;;;;;5095332;28;20196;-78
2023/01/18 08:29:45;;;;;;;0.70;0.70;;;1.80;99.90;;;;;;5095065;28;20204;-78
2023/01/18 08:32:11;;;;;;;0.82;0.82;;;1.80;99.90;;;;;;5095328;28;20281;-80
2023/01/18 08:34:37;;;;;;;0.60;0.60;;;1.90;99.90;;;;;;5094976;28;20843;-78
2023/01/18 08:37:03;;;;;;;0.57;0.57;;;1.90;99.90;;;;;;5093817;28;20192;-78
2023/01/18 08:39:29;;;;;;;0.60;0.60;;;1.80;99.90;;;;;;5090062;28;20246;-78
2023/01/18 08:41:54;;;;;;;0.60;0.60;;;1.80;99.90;;;;;;5074827;28;20292;-78
2023/01/18 08:44:20;;;;;;;0.47;0.47;;;1.80;99.90;;;;;;5090371;28;20197;-78
2023/01/18 08:46:46;;;;;;;0.70;0.70;;;1.80;99.90;;;;;;5090356;28;20204;-79
2023/01/18 08:49:12;;;;;;;0.60;0.60;;;1.80;99.90;;;;;;5090185;28;20201;-79
2023/01/18 08:51:38;;;;;;;0.60;0.60;;;1.80;99.90;;;;;;5093657;28;20580;-79
2023/01/18 08:54:05;;;;;;;0.70;0.70;;;1.80;99.90;;;;;;5094912;28;20196;-79
2023/01/18 08:56:31;;;;;;;0.50;0.50;;;1.80;99.90;;;;;;5094590;28;20583;-78
2023/01/18 08:58:57;;;;;;;0.55;0.55;;;1.80;99.90;;;;;;5093460;28;20654;-78
2023/01/18 09:01:23;;;;;;;0.55;0.55;;;1.80;99.90;;;;;;5092271;28;20208;-79
2023/01/18 09:03:49;;;;;;;0.60;0.60;;;1.80;99.90;;;;;;5094299;28;20220;-78
2023/01/18 09:06:15;;;;;;;0.52;0.52;;;1.80;99.90;;;;;;5093265;28;20200;-78
2023/01/18 09:08:41;;;;;;;0.50;0.50;;;1.80;99.90;;;;;;5093050;28;20201;-78
2023/01/18 09:11:09;;;;;;;0.55;0.55;;;1.80;99.90;;;;;;5094436;28;20583;-78
2023/01/18 09:13:35;;;;;;;0.60;0.60;;;1.80;99.90;;;;;;5093253;28;20200;-78
2023/01/18 09:16:09;;;;;;;0.65;0.65;;;1.80;99.90;;;;;;5094143;28;20227;-78
2023/01/18 09:18:36;;;;;;;0.77;0.77;;;1.90;99.90;;;;;;5094145;28;20196;-78
2023/01/18 09:21:10;;;;;;;0.50;0.50;;;1.90;99.90;;;;;;5093018;28;20731;-78
2023/01/18 09:23:38;;;;;;;0.60;0.60;;;1.90;99.90;;;;;;5092796;28;20200;-79
2023/01/18 09:26:13;;;;;;;0.50;0.50;;;1.80;99.90;;;;;;5092911;28;20733;-78
2023/01/18 09:28:38;;;;;;;0.40;0.40;;;1.90;99.90;;;;;;5092670;28;20210;-78
2023/01/18 09:31:09;;;;;;;0.68;0.68;;;1.90;99.90;;;;;;5093901;28;20302;-78
2023/01/18 09:33:36;;;;;;;0.60;0.60;;;1.80;99.90;;;;;;5092349;28;20215;-78
2023/01/18 09:36:08;;;;;;;0.60;0.60;;;1.80;99.90;;;;;;5092651;28;20193;-79
2023/01/18 09:38:35;;;;;;;0.80;0.80;;;1.80;99.90;;;;;;5082086;28;20197;-78
2023/01/18 09:41:02;;;;;;;0.50;0.50;;;1.80;99.90;;;;;;5072244;28;20197;-79
2023/01/18 09:43:38;;;;;;;0.50;0.50;;;1.80;99.90;;;;;;5071948;28;20568;-78
2023/01/18 09:46:04;;;;;;;0.70;0.70;;;1.80;99.90;;;;;;5077318;28;20188;-79
2023/01/18 09:48:42;;;;;;;0.70;0.70;;;1.80;99.90;;;;;;5092165;28;20253;-78
2023/01/18 09:51:21;;;;;;;0.55;0.55;;;1.80;99.90;;;;;;5092114;28;20208;-78
2023/01/18 09:54:10;;;;;;;0.50;0.50;;;1.80;99.90;;;;;;5092269;28;20654;-78
2023/01/18 09:56:56;;;;;;;0.60;0.60;;;1.80;99.90;;;;;;5091874;28;20224;-78
2023/01/18 09:59:54;;;;;;;0.70;0.70;;;1.80;99.90;;;;;;5071941;28;20205;-78
2023/01/18 10:02:38;;;;;;;0.55;0.55;;;1.80;99.90;;;;;;5065473;28;20209;-78
2023/01/18 10:05:20;;;;;;;0.50;0.50;;;1.80;99.90;;;;;;5073153;28;20206;-78
2023/01/18 10:08:12;;;;;;;0.60;0.60;;;1.80;99.90;;;;;;5073150;28;20682;-78
2023/01/18 10:10:52;;;;;;;0.65;0.65;;;1.80;99.90;;;;;;5073108;28;20216;-78
2023/01/18 10:13:37;;;;;;;0.60;0.60;;;1.80;99.90;;;;;;5092507;28;20199;-77
2023/01/18 10:16:09;;;;;;;0.60;0.60;;;1.80;99.90;;;;;;5093458;28;20184;-78
2023/01/18 10:18:44;;;;;;;0.60;0.60;;;1.80;99.90;;;;;;5091761;28;20610;-78
2023/01/18 10:21:17;;;;;;;0.50;0.50;;;1.80;99.90;;;;;;5091584;28;20534;-78
2023/01/18 10:24:03;;;;;;;0.60;0.60;;;1.80;99.90;;;;;;5091925;28;20192;-78
2023/01/18 10:26:30;;;;;;;1.13;1.00;;;1.70;99.90;;;;;;5091684;28;20196;-78
2023/01/18 10:29:13;;;;;;;0.70;0.70;;;1.70;99.90;;;;;;5093097;28;20267;-78
2023/01/18 10:31:43;;;;;;;0.60;0.60;;;1.70;99.90;;;;;;5092601;28;20192;-78
2023/01/18 10:34:20;;;;;;;0.50;0.50;;;1.70;99.90;;;;;;5091873;28;20196;-79
2023/01/18 10:37:03;;;;;;;0.57;0.57;;;1.80;99.90;;;;;;5091380;28;20192;-79
2023/01/18 10:39:31;;;;;;;0.50;0.50;;;1.70;99.90;;;;;;5092505;28;20192;-80
2023/01/18 10:42:01;;;;;;;0.60;0.60;;;1.70;99.90;;;;;;5091542;28;20200;-79
2023/01/18 10:44:28;;;;;;;0.60;0.60;;;1.70;99.90;;;;;;5092818;28;20245;-79
2023/01/18 10:47:00;;;;;;;0.50;0.50;;;1.70;99.90;;;;;;5092000;28;20674;-79
2023/01/18 10:49:36;;;;;;;0.57;0.57;;;1.70;99.90;;;;;;5091234;28;20555;-79
2023/01/18 10:52:28;;;;;;;0.60;0.60;;;1.70;99.90;;;;;;5092873;28;20662;-78
2023/01/18 10:54:57;;;;;;;0.60;0.60;;;1.70;99.90;;;;;;5087713;28;20204;-79
2023/01/18 10:57:28;;;;;;;0.60;0.60;;;1.70;99.90;;;;;;5092572;28;20212;-79
2023/01/18 10:59:55;;;;;;;0.60;0.60;;;1.70;99.90;;;;;;5092862;28;20195;-79
2023/01/18 11:02:31;;;;;;;0.52;0.52;;;1.70;99.90;;;;;;5092779;28;20659;-79
2023/01/18 11:05:01;;;;;;;0.50;0.50;;;1.80;99.90;;;;;;5092732;28;20795;-79
2023/01/18 11:07:28;;;;;;;1.55;1.25;;;1.80;99.90;;;;;;5092272;28;20220;-79
2023/01/18 11:09:58;;;;;;;0.63;0.63;;;1.80;99.90;;;;;;5092879;28;20207;-78
2023/01/18 11:12:46;;;;;;;0.60;0.60;;;1.80;99.90;;;;;;5091116;28;20192;-78
2023/01/18 11:15:12;;;;;;;0.70;0.70;;;1.80;99.90;;;;;;5091336;28;20670;-78
2023/01/18 11:17:44;;;;;;;0.50;0.50;;;1.70;99.90;;;;;;5091358;28;20196;-79
2023/01/18 11:20:39;;;;;;;0.60;0.60;;;1.70;99.90;;;;;;5091243;28;20196;-79
2023/01/18 11:23:16;;;;;;;0.60;0.60;;;1.70;99.90;;;;;;5091267;28;20666;-79
2023/01/18 11:25:50;;;;;;;0.55;0.55;;;1.70;99.90;;;;;;5093784;28;20203;-79
2023/01/18 11:28:29;;;;;;;0.60;0.60;;;1.80;99.90;;;;;;5096615;28;20187;-79
2023/01/18 11:30:59;;;;;;;0.60;0.60;;;1.80;99.90;;;;;;5096448;28;20236;-79
2023/01/18 11:33:26;;;;;;;0.70;0.70;;;1.80;99.90;;;;;;5094800;28;20223;-79
2023/01/18 11:35:55;;;;;;;0.60;0.60;;;1.80;99.90;;;;;;5096703;28;20188;-79
2023/01/18 11:38:27;;;;;;;0.52;0.52;;;1.70;99.90;;;;;;5095696;28;20184;-80
2023/01/18 11:41:21;;;;;;;0.50;0.50;;;1.70;99.90;;;;;;5096259;28;20188;-80
2023/01/18 11:44:17;;;;;;;0.60;0.60;;;1.70;99.90;;;;;;5096073;28;20769;-78
2023/01/18 11:46:48;;;;;;;0.50;0.50;;;1.70;99.90;;;;;;5095165;28;20195;-78
2023/01/18 11:49:48;;;;;;;0.70;0.70;;;1.70;99.90;;;;;;5095939;28;20233;-78
2023/01/18 11:52:32;;;;;;;0.47;0.47;;;1.70;99.90;;;;;;5075773;28;20196;-77
2023/01/18 11:55:04;;;;;;;0.60;0.60;;;1.60;99.90;;;;;;5074440;28;20675;-78
2023/01/18 11:57:30;;;;;;;0.73;0.73;;;1.60;99.90;;;;;;5079356;28;20232;-80
2023/01/18 11:59:56;;;;;;;0.75;0.75;;;1.60;99.90;;;;;;5094600;28;20211;-78
2023/01/18 12:02:30;;;;;;;1.75;1.08;;;1.60;99.90;;;;;;5094014;28;20196;-79
2023/01/18 12:05:09;;;;;;;0.57;0.57;;;1.70;99.90;;;;;;5095659;28;20207;-79
2023/01/18 12:08:09;;;;;;;0.65;0.65;;;1.70;99.90;;;;;;5094276;28;20562;-78
2023/01/18 12:11:22;;;;;;;0.60;0.60;;;1.70;99.90;;;;;;5095424;28;20602;-79
2023/01/18 12:13:59;;;;;;;0.75;0.75;;;1.60;99.90;;;;;;5094355;28;20757;-77
2023/01/18 12:16:46;;;;;;;0.60;0.60;;;1.60;99.90;;;;;;5094151;28;20565;-77
2023/01/18 12:19:42;;;;;;;0.70;0.70;;;1.60;99.90;;;;;;5095545;28;20214;-78
2023/01/18 12:22:56;;;;;;;0.70;0.70;;;1.60;99.90;;;;;;5091901;28;20192;-78
2023/01/18 12:25:32;;;;;;;0.60;0.60;;;1.60;99.90;;;;;;5038641;28;20576;-78
2023/01/18 12:28:10;;;;;;;1.08;0.80;;;1.50;99.90;;;;;;5075163;28;20677;-78
2023/01/18 12:31:11;;;;;;;0.60;0.60;;;1.40;99.90;;;;;;5073842;28;20726;-78
2023/01/18 12:34:02;;;;;;;0.60;0.60;;;1.50;99.90;;;;;;5074777;28;20193;-78
2023/01/18 12:36:52;;;;;;;0.60;0.60;;;1.50;99.90;;;;;;5091522;28;20200;-78
2023/01/18 12:39:21;;;;;;;0.50;0.50;;;1.40;99.90;;;;;;5094861;28;20562;-79
2023/01/18 12:42:02;;;;;;;0.60;0.60;;;1.40;99.90;;;;;;5095130;28;20184;-79
2023/01/18 12:44:52;;;;;;;0.90;0.90;;;1.40;99.90;;;;;;5094791;28;20188;-78
2023/01/18 12:47:39;;;;;;;0.70;0.70;;;1.50;99.90;;;;;;5083838;28;20288;-78
2023/01/18 12:50:20;;;;;;;0.57;0.57;;;1.50;99.90;;;;;;5074571;28;20208;-78
2023/01/18 12:52:51;;;;;;;0.60;0.60;;;1.50;99.90;;;;;;5073425;28;20230;-79
2023/01/18 12:55:21;;;;;;;0.60;0.60;;;1.50;99.90;;;;;;5091610;28;20667;-78
2023/01/18 12:57:54;;;;;;;0.85;0.85;;;1.50;99.90;;;;;;5094786;28;20663;-79
2023/01/18 13:00:39;;;;;;;0.60;0.60;;;1.50;99.90;;;;;;5094399;28;20188;-79
2023/01/18 13:03:12;;;;;;;0.65;0.65;;;1.50;99.90;;;;;;5093134;28;20243;-79
2023/01/18 13:05:54;;;;;;;0.70;0.70;;;1.50;99.90;;;;;;5093092;28;21851;-79
2023/01/18 13:08:41;;;;;;;0.60;0.60;;;1.50;99.90;;;;;;5093196;28;20221;-79
2023/01/18 13:11:18;;;;;;;0.70;0.70;;;1.50;99.90;;;;;;5094460;28;20250;-79
2023/01/18 13:13:45;;;;;;;0.63;0.63;;;1.40;99.90;;;;;;5094711;28;20192;-79
2023/01/18 13:16:38;;;;;;;0.63;0.63;;;1.50;99.90;;;;;;5093176;28;20195;-79
2023/01/18 13:19:07;;;;;;;0.60;0.60;;;1.40;99.90;;;;;;5093091;28;20200;-80
2023/01/18 13:22:21;;;;;;;0.50;0.50;;;1.40;99.90;;;;;;5093108;28;20524;-78
2023/01/18 13:25:20;;;;;;;0.60;0.60;;;1.40;99.90;;;;;;5094228;28;20249;-79
2023/01/18 13:28:18;;;;;;;0.60;0.60;;;1.40;99.90;;;;;;5094219;28;20194;-79
2023/01/18 13:30:55;;;;;;;0.70;0.70;;;1.40;99.90;;;;;;5094028;28;20206;-79
2023/01/18 13:33:26;;;;;;;0.63;0.63;;;1.40;99.90;;;;;;5093853;28;20194;-78
2023/01/18 13:35:55;;;;;;;0.50;0.50;;;1.40;99.90;;;;;;5092713;28;20249;-78
2023/01/18 13:38:25;;;;;;;0.60;0.60;;;1.40;99.90;;;;;;5093511;28;20702;-78
2023/01/18 13:41:01;;;;;;;0.60;0.60;;;1.40;99.90;;;;;;5094072;28;20553;-79
2023/01/18 13:43:36;;;;;;;0.60;0.60;;;1.40;99.90;;;;;;5085541;28;20210;-78
2023/01/18 13:46:08;;;;;;;0.70;0.70;;;1.40;99.90;;;;;;5092565;28;20553;-79
2023/01/18 13:48:34;;;;;;;0.60;0.60;;;1.40;99.90;;;;;;5092259;28;20564;-79
2023/01/18 13:50:59;;;;;;;0.63;0.63;;;1.40;99.90;;;;;;5092301;28;20208;-79
2023/01/18 13:53:26;;;;;;;0.60;0.60;;;1.40;99.90;;;;;;5093625;28;20216;-78
2023/01/18 13:56:29;;;;;;;0.60;0.60;;;1.40;99.90;;;;;;5092372;28;20237;-78